createdAt,value
2016-06-13T00:00:36.860Z,998.45
2016-06-13T00:01:36.894Z,998.42
2016-06-13T00:02:36.927Z,998.39
2016-06-13T00:03:36.977Z,998.4
2016-06-13T00:04:37.012Z,998.38
2016-06-13T00:05:37.047Z,998.37
2016-06-13T00:06:37.081Z,998.33
2016-06-13T00:07:37.114Z,998.37
2016-06-13T00:08:37.149Z,998.33
2016-06-13T00:09:37.184Z,998.3
2016-06-13T00:10:37.234Z,998.31
2016-06-13T00:11:37.408Z,998.3
2016-06-13T00:12:37.303Z,998.3
2016-06-13T00:13:37.336Z,998.31
2016-06-13T00:14:37.371Z,998.27
2016-06-13T00:15:37.420Z,998.29
2016-06-13T00:16:37.456Z,998.26
2016-06-13T00:17:37.490Z,998.23
2016-06-13T00:18:37.523Z,998.28
2016-06-13T00:19:37.558Z,998.26
2016-06-13T00:20:37.608Z,998.29
2016-06-13T00:21:37.643Z,998.26
2016-06-13T00:22:37.677Z,998.26
2016-06-13T00:23:37.712Z,998.27
2016-06-13T00:24:37.745Z,998.27
2016-06-13T00:25:37.795Z,998.25
2016-06-13T00:26:37.829Z,998.25
2016-06-13T00:27:37.864Z,998.21
2016-06-13T00:28:37.899Z,998.26
2016-06-13T00:29:37.932Z,998.22
2016-06-13T00:30:37.966Z,998.25
2016-06-13T00:31:38.002Z,998.23
2016-06-13T00:32:38.052Z,998.21
2016-06-13T00:33:38.086Z,998.2
2016-06-13T00:34:38.120Z,998.18
2016-06-13T00:35:38.170Z,998.19
2016-06-13T00:36:38.189Z,998.16
2016-06-13T00:37:38.238Z,998.15
2016-06-13T00:38:38.273Z,998.15
2016-06-13T00:39:38.308Z,998.12
2016-06-13T00:40:38.732Z,998.13
2016-06-13T00:41:38.375Z,998.09
2016-06-13T00:42:38.411Z,998.12
2016-06-13T00:43:38.461Z,998.06
2016-06-13T00:44:38.494Z,998.06
2016-06-13T00:45:38.545Z,998.05
2016-06-13T00:46:38.562Z,998.07
2016-06-13T00:47:38.598Z,998.04
2016-06-13T00:48:38.632Z,998.04
2016-06-13T00:49:38.682Z,998.05
2016-06-13T00:50:38.716Z,998.04
2016-06-13T00:51:38.750Z,998.02
2016-06-13T00:52:38.784Z,998.06
2016-06-13T00:53:38.835Z,998.02
2016-06-13T00:54:38.869Z,998.02
2016-06-13T00:55:38.904Z,998
2016-06-13T00:56:38.938Z,997.95
2016-06-13T00:57:38.972Z,997.95
2016-06-13T00:58:39.007Z,997.97
2016-06-13T00:59:39.056Z,998.01
2016-06-13T01:00:39.091Z,997.97
2016-06-13T01:01:39.125Z,997.96
2016-06-13T01:02:39.159Z,997.95
2016-06-13T01:03:39.193Z,997.99
2016-06-13T01:04:39.229Z,997.97
2016-06-13T01:05:39.278Z,997.94
2016-06-13T01:06:39.312Z,997.98
2016-06-13T01:07:39.347Z,997.92
2016-06-13T01:08:39.396Z,997.98
2016-06-13T01:09:39.415Z,997.93
2016-06-13T01:10:39.464Z,997.91
2016-06-13T01:11:39.500Z,997.88
2016-06-13T01:12:39.596Z,997.9
2016-06-13T01:13:39.567Z,997.88
2016-06-13T01:14:39.681Z,997.9
2016-06-13T01:15:39.637Z,997.89
2016-06-13T01:16:39.671Z,997.85
2016-06-13T01:17:39.721Z,997.81
2016-06-13T01:18:39.755Z,997.84
2016-06-13T01:19:39.789Z,997.82
2016-06-13T01:20:39.824Z,997.82
2016-06-13T01:21:39.859Z,997.79
2016-06-13T01:22:39.909Z,997.78
2016-06-13T01:23:39.942Z,997.76
2016-06-13T01:24:39.976Z,997.76
2016-06-13T01:25:40.042Z,997.72
2016-06-13T01:26:40.046Z,997.71
2016-06-13T01:27:40.080Z,997.73
2016-06-13T01:28:40.130Z,997.71
2016-06-13T01:29:40.164Z,997.68
2016-06-13T01:30:40.198Z,997.67
2016-06-13T01:31:40.233Z,997.66
2016-06-13T01:32:40.267Z,997.68
2016-06-13T01:33:40.302Z,997.67
2016-06-13T01:34:40.335Z,997.64
2016-06-13T01:35:40.385Z,997.63
2016-06-13T01:36:40.420Z,997.62
2016-06-13T01:37:40.455Z,997.6
2016-06-13T01:38:40.489Z,997.57
2016-06-13T01:39:40.522Z,997.58
2016-06-13T01:40:40.573Z,997.58
2016-06-13T01:41:40.607Z,997.56
2016-06-13T01:42:40.642Z,997.53
2016-06-13T01:43:40.676Z,997.54
2016-06-13T01:44:40.711Z,997.47
2016-06-13T01:45:40.744Z,997.49
2016-06-13T01:46:40.779Z,997.45
2016-06-13T01:47:40.828Z,997.44
2016-06-13T01:48:40.863Z,997.36
2016-06-13T01:49:40.898Z,997.38
2016-06-13T01:50:40.931Z,997.35
2016-06-13T01:51:40.965Z,997.33
2016-06-13T01:52:41.000Z,997.29
2016-06-13T01:53:41.051Z,997.28
2016-06-13T01:54:41.084Z,997.3
2016-06-13T01:55:41.119Z,997.28
2016-06-13T01:56:41.653Z,997.28
2016-06-13T01:57:41.188Z,997.26
2016-06-13T01:58:41.237Z,997.25
2016-06-13T01:59:41.272Z,997.2
2016-06-13T02:00:41.307Z,997.22
2016-06-13T02:01:41.340Z,997.17
2016-06-13T02:02:41.374Z,997.13
2016-06-13T02:03:41.410Z,997.14
2016-06-13T02:04:41.443Z,997.11
2016-06-13T02:05:41.494Z,997.08
2016-06-13T02:06:41.528Z,997.08
2016-06-13T02:07:41.561Z,997.12
2016-06-13T02:08:41.597Z,997.05
2016-06-13T02:09:41.631Z,997.09
2016-06-13T02:10:41.681Z,997.09
2016-06-13T02:11:41.934Z,997.07
2016-06-13T02:12:41.749Z,997.1
2016-06-13T02:13:41.783Z,997.05
2016-06-13T02:14:41.819Z,997.07
2016-06-13T02:15:41.852Z,997.03
2016-06-13T02:16:41.902Z,997.03
2016-06-13T02:17:41.936Z,997
2016-06-13T02:18:41.971Z,996.97
2016-06-13T02:19:42.006Z,996.95
2016-06-13T02:20:42.055Z,996.94
2016-06-13T02:21:42.074Z,996.93
2016-06-13T02:22:42.108Z,996.93
2016-06-13T02:23:42.158Z,996.9
2016-06-13T02:24:42.192Z,996.9
2016-06-13T02:25:42.227Z,996.88
2016-06-13T02:26:42.589Z,996.91
2016-06-13T02:27:42.295Z,996.91
2016-06-13T02:28:42.346Z,996.93
2016-06-13T02:29:42.379Z,996.92
2016-06-13T02:30:42.415Z,996.9
2016-06-13T02:31:42.449Z,996.86
2016-06-13T02:32:42.483Z,996.8
2016-06-13T02:33:42.516Z,996.81
2016-06-13T02:34:42.552Z,996.82
2016-06-13T02:35:42.601Z,996.81
2016-06-13T02:36:42.636Z,996.75
2016-06-13T02:37:42.670Z,996.74
2016-06-13T02:38:42.704Z,996.74
2016-06-13T02:39:42.738Z,996.73
2016-06-13T02:40:42.773Z,996.71
2016-06-13T02:41:42.823Z,996.71
2016-06-13T02:42:42.858Z,996.68
2016-06-13T02:43:42.892Z,996.67
2016-06-13T02:44:42.925Z,996.67
2016-06-13T02:45:42.961Z,996.64
2016-06-13T02:46:42.995Z,996.64
2016-06-13T02:47:43.029Z,996.64
2016-06-13T02:48:43.078Z,996.61
2016-06-13T02:49:43.112Z,996.61
2016-06-13T02:50:43.147Z,996.58
2016-06-13T02:51:43.182Z,996.6
2016-06-13T02:52:43.216Z,996.6
2016-06-13T02:53:43.266Z,996.57
2016-06-13T02:54:43.301Z,996.57
2016-06-13T02:55:43.334Z,996.58
2016-06-13T02:56:43.369Z,996.57
2016-06-13T02:57:43.404Z,996.55
2016-06-13T02:58:43.438Z,996.55
2016-06-13T02:59:43.488Z,996.62
2016-06-13T03:00:43.521Z,996.57
2016-06-13T03:01:43.556Z,996.55
2016-06-13T03:02:43.591Z,996.59
2016-06-13T03:03:43.625Z,996.56
2016-06-13T03:04:43.659Z,996.53
2016-06-13T03:05:43.709Z,996.54
2016-06-13T03:06:43.743Z,996.53
2016-06-13T03:07:43.779Z,996.5
2016-06-13T03:08:43.812Z,996.49
2016-06-13T03:09:43.846Z,996.47
2016-06-13T03:10:43.881Z,996.46
2016-06-13T03:11:44.681Z,996.42
2016-06-13T03:12:43.964Z,996.42
2016-06-13T03:13:44.000Z,996.4
2016-06-13T03:14:44.034Z,996.35
2016-06-13T03:15:44.067Z,996.37
2016-06-13T03:16:44.118Z,996.36
2016-06-13T03:17:44.152Z,996.33
2016-06-13T03:18:44.187Z,996.29
2016-06-13T03:19:44.221Z,996.33
2016-06-13T03:20:44.256Z,996.28
2016-06-13T03:21:44.289Z,996.25
2016-06-13T03:22:44.339Z,996.29
2016-06-13T03:23:44.373Z,996.28
2016-06-13T03:24:44.409Z,996.25
2016-06-13T03:25:44.442Z,996.24
2016-06-13T03:26:44.514Z,996.25
2016-06-13T03:27:44.573Z,996.17
2016-06-13T03:28:44.663Z,996.19
2016-06-13T03:29:44.739Z,996.1
2016-06-13T03:30:44.813Z,996.07
2016-06-13T03:31:44.874Z,996.05
2016-06-13T03:32:44.921Z,996.04
2016-06-13T03:33:44.971Z,996.04
2016-06-13T03:34:45.034Z,996.04
2016-06-13T03:35:45.084Z,996.01
2016-06-13T03:36:45.127Z,996.06
2016-06-13T03:37:45.166Z,996.06
2016-06-13T03:38:45.206Z,996.03
2016-06-13T03:39:45.246Z,996.07
2016-06-13T03:40:45.286Z,996.04
2016-06-13T03:41:45.339Z,996.04
2016-06-13T03:42:45.375Z,996.07
2016-06-13T03:43:45.411Z,996.1
2016-06-13T03:44:45.448Z,996.08
2016-06-13T03:45:45.484Z,996.1
2016-06-13T03:46:45.520Z,996.08
2016-06-13T03:47:45.571Z,996.09
2016-06-13T03:48:45.605Z,996.09
2016-06-13T03:49:45.640Z,996.12
2016-06-13T03:50:45.676Z,996.11
2016-06-13T03:51:45.711Z,996.08
2016-06-13T03:52:45.760Z,996.07
2016-06-13T03:53:45.795Z,996.12
2016-06-13T03:54:45.828Z,996.13
2016-06-13T03:55:45.864Z,996.14
2016-06-13T03:56:45.898Z,996.15
2016-06-13T03:57:45.932Z,996.11
2016-06-13T03:58:45.966Z,996.11
2016-06-13T03:59:46.016Z,996.1
2016-06-13T04:00:46.050Z,996.12
2016-06-13T04:01:46.085Z,996.1
2016-06-13T04:02:46.120Z,996.09
2016-06-13T04:03:46.153Z,996.09
2016-06-13T04:04:46.204Z,996.08
2016-06-13T04:05:46.237Z,996.08
2016-06-13T04:06:46.273Z,996.08
2016-06-13T04:07:46.307Z,996.08
2016-06-13T04:08:46.340Z,996.05
2016-06-13T04:09:46.375Z,996.06
2016-06-13T04:10:46.441Z,996.07
2016-06-13T04:11:46.459Z,996.04
2016-06-13T04:12:46.509Z,995.93
2016-06-13T04:13:46.544Z,995.93
2016-06-13T04:14:46.562Z,995.9
2016-06-13T04:15:46.613Z,995.91
2016-06-13T04:16:46.646Z,995.89
2016-06-13T04:17:46.681Z,995.91
2016-06-13T04:18:46.716Z,995.87
2016-06-13T04:19:46.750Z,995.91
2016-06-13T04:20:46.783Z,995.86
2016-06-13T04:21:46.833Z,995.83
2016-06-13T04:22:46.867Z,995.81
2016-06-13T04:23:46.903Z,995.78
2016-06-13T04:24:46.937Z,995.74
2016-06-13T04:25:46.970Z,995.77
2016-06-13T04:26:47.255Z,995.75
2016-06-13T04:27:47.055Z,995.77
2016-06-13T04:28:47.090Z,995.73
2016-06-13T04:29:47.124Z,995.76
2016-06-13T04:30:47.159Z,995.73
2016-06-13T04:31:47.192Z,995.72
2016-06-13T04:32:47.242Z,995.71
2016-06-13T04:33:47.276Z,995.68
2016-06-13T04:34:47.311Z,995.72
2016-06-13T04:35:47.346Z,995.72
2016-06-13T04:36:47.379Z,995.75
2016-06-13T04:37:47.414Z,995.71
2016-06-13T04:38:47.449Z,995.69
2016-06-13T04:39:47.499Z,995.66
2016-06-13T04:40:47.533Z,995.63
2016-06-13T04:41:47.770Z,995.59
2016-06-13T04:42:47.601Z,995.66
2016-06-13T04:43:47.637Z,995.64
2016-06-13T04:44:47.685Z,995.65
2016-06-13T04:45:47.720Z,995.63
2016-06-13T04:46:47.755Z,995.62
2016-06-13T04:47:47.788Z,995.63
2016-06-13T04:48:47.822Z,995.62
2016-06-13T04:49:47.872Z,995.64
2016-06-13T04:50:47.908Z,995.6
2016-06-13T04:51:47.942Z,995.6
2016-06-13T04:52:47.976Z,995.61
2016-06-13T04:53:48.026Z,995.59
2016-06-13T04:54:48.045Z,995.58
2016-06-13T04:55:48.094Z,995.6
2016-06-13T04:56:48.739Z,995.59
2016-06-13T04:57:48.164Z,995.61
2016-06-13T04:58:48.197Z,995.6
2016-06-13T04:59:48.231Z,995.57
2016-06-13T05:00:48.282Z,995.55
2016-06-13T05:01:48.317Z,995.58
2016-06-13T05:02:48.351Z,995.56
2016-06-13T05:03:48.385Z,995.59
2016-06-13T05:04:48.418Z,995.56
2016-06-13T05:05:48.454Z,995.56
2016-06-13T05:06:48.488Z,995.59
2016-06-13T05:07:48.538Z,995.58
2016-06-13T05:08:48.572Z,995.58
2016-06-13T05:09:48.606Z,995.56
2016-06-13T05:10:48.640Z,995.59
2016-06-13T05:11:48.847Z,995.55
2016-06-13T05:12:48.725Z,995.54
2016-06-13T05:13:48.760Z,995.55
2016-06-13T05:14:48.794Z,995.54
2016-06-13T05:15:48.827Z,995.52
2016-06-13T05:16:48.878Z,995.52
2016-06-13T05:17:48.912Z,995.5
2016-06-13T05:18:48.962Z,995.46
2016-06-13T05:19:48.981Z,995.47
2016-06-13T05:20:49.015Z,995.48
2016-06-13T05:21:49.049Z,995.47
2016-06-13T05:22:49.099Z,995.47
2016-06-13T05:23:49.134Z,995.41
2016-06-13T05:24:49.168Z,995.43
2016-06-13T05:25:49.203Z,995.41
2016-06-13T05:26:49.253Z,995.42
2016-06-13T05:27:49.286Z,995.4
2016-06-13T05:28:49.320Z,995.39
2016-06-13T05:29:49.356Z,995.4
2016-06-13T05:30:49.390Z,995.39
2016-06-13T05:31:49.440Z,995.38
2016-06-13T05:32:49.474Z,995.37
2016-06-13T05:33:49.508Z,995.4
2016-06-13T05:34:49.543Z,995.38
2016-06-13T05:35:49.577Z,995.36
2016-06-13T05:36:49.627Z,995.38
2016-06-13T05:37:49.661Z,995.36
2016-06-13T05:38:49.695Z,995.42
2016-06-13T05:39:49.729Z,995.42
2016-06-13T05:40:49.764Z,995.38
2016-06-13T05:41:49.815Z,995.41
2016-06-13T05:42:50.286Z,995.4
2016-06-13T05:43:49.883Z,995.4
2016-06-13T05:44:49.917Z,995.41
2016-06-13T05:45:49.952Z,995.39
2016-06-13T05:46:49.986Z,995.38
2016-06-13T05:47:50.036Z,995.34
2016-06-13T05:48:50.070Z,995.33
2016-06-13T05:49:50.104Z,995.37
2016-06-13T05:50:50.138Z,995.32
2016-06-13T05:51:50.173Z,995.34
2016-06-13T05:52:50.223Z,995.38
2016-06-13T05:53:50.258Z,995.36
2016-06-13T05:54:50.308Z,995.37
2016-06-13T05:55:50.341Z,995.35
2016-06-13T05:56:50.439Z,995.38
2016-06-13T05:57:50.395Z,995.4
2016-06-13T05:58:50.445Z,995.4
2016-06-13T05:59:50.479Z,995.39
2016-06-13T06:00:50.512Z,995.34
2016-06-13T06:01:50.563Z,995.34
2016-06-13T06:02:50.597Z,995.33
2016-06-13T06:03:50.632Z,995.31
2016-06-13T06:04:50.666Z,995.31
2016-06-13T06:05:50.701Z,995.33
2016-06-13T06:06:50.734Z,995.33
2016-06-13T06:07:50.784Z,995.35
2016-06-13T06:08:50.818Z,995.33
2016-06-13T06:09:50.854Z,995.35
2016-06-13T06:10:50.888Z,995.34
2016-06-13T06:11:51.296Z,995.28
2016-06-13T06:12:50.972Z,995.3
2016-06-13T06:13:51.006Z,995.29
2016-06-13T06:14:51.041Z,995.27
2016-06-13T06:15:51.075Z,995.27
2016-06-13T06:16:51.125Z,995.27
2016-06-13T06:17:51.159Z,995.24
2016-06-13T06:18:51.193Z,995.27
2016-06-13T06:19:51.227Z,995.28
2016-06-13T06:20:51.262Z,995.25
2016-06-13T06:21:51.296Z,995.24
2016-06-13T06:22:51.347Z,995.23
2016-06-13T06:23:51.381Z,995.28
2016-06-13T06:24:51.414Z,995.24
2016-06-13T06:25:51.450Z,995.26
2016-06-13T06:26:51.499Z,995.27
2016-06-13T06:27:51.534Z,995.29
2016-06-13T06:28:51.568Z,995.28
2016-06-13T06:29:51.602Z,995.25
2016-06-13T06:30:51.636Z,995.25
2016-06-13T06:31:51.686Z,995.24
2016-06-13T06:32:51.721Z,995.23
2016-06-13T06:33:51.756Z,995.27
2016-06-13T06:34:51.790Z,995.22
2016-06-13T06:35:51.840Z,995.23
2016-06-13T06:36:51.873Z,995.25
2016-06-13T06:37:51.907Z,995.26
2016-06-13T06:38:51.943Z,995.21
2016-06-13T06:39:51.977Z,995.23
2016-06-13T06:40:52.027Z,995.21
2016-06-13T06:41:52.061Z,995.23
2016-06-13T06:42:52.095Z,995.2
2016-06-13T06:43:52.130Z,995.22
2016-06-13T06:44:52.179Z,995.22
2016-06-13T06:45:52.214Z,995.22
2016-06-13T06:46:52.249Z,995.24
2016-06-13T06:47:52.282Z,995.22
2016-06-13T06:48:52.333Z,995.23
2016-06-13T06:49:52.366Z,995.22
2016-06-13T06:50:52.402Z,995.24
2016-06-13T06:51:52.451Z,995.22
2016-06-13T06:52:52.486Z,995.28
2016-06-13T06:53:52.520Z,995.22
2016-06-13T06:54:52.553Z,995.21
2016-06-13T06:55:52.588Z,995.19
2016-06-13T06:56:52.638Z,995.21
2016-06-13T06:57:53.298Z,995.21
2016-06-13T06:58:52.707Z,995.26
2016-06-13T06:59:52.741Z,995.24
2016-06-13T07:00:52.792Z,995.23
2016-06-13T07:01:52.825Z,995.22
2016-06-13T07:02:52.859Z,995.18
2016-06-13T07:03:52.895Z,995.18
2016-06-13T07:04:52.929Z,995.18
2016-06-13T07:05:52.979Z,995.17
2016-06-13T07:06:53.013Z,995.18
2016-06-13T07:07:53.047Z,995.19
2016-06-13T07:08:53.082Z,995.17
2016-06-13T07:09:53.131Z,995.21
2016-06-13T07:10:53.166Z,995.23
2016-06-13T07:11:53.200Z,995.18
2016-06-13T07:12:53.469Z,995.18
2016-06-13T07:13:53.285Z,995.2
2016-06-13T07:14:53.318Z,995.19
2016-06-13T07:15:53.369Z,995.19
2016-06-13T07:16:53.388Z,995.21
2016-06-13T07:17:53.438Z,995.17
2016-06-13T07:18:53.472Z,995.19
2016-06-13T07:19:53.505Z,995.16
2016-06-13T07:20:53.556Z,995.13
2016-06-13T07:21:53.590Z,995.12
2016-06-13T07:22:53.625Z,995.11
2016-06-13T07:23:53.659Z,995.13
2016-06-13T07:24:53.710Z,995.14
2016-06-13T07:25:53.743Z,995.14
2016-06-13T07:26:53.777Z,995.12
2016-06-13T07:27:53.828Z,995.15
2016-06-13T07:28:53.862Z,995.12
2016-06-13T07:29:53.911Z,995.15
2016-06-13T07:30:53.930Z,995.14
2016-06-13T07:31:53.964Z,995.14
2016-06-13T07:32:54.015Z,995.1
2016-06-13T07:33:54.048Z,995.12
2016-06-13T07:34:54.083Z,995.1
2016-06-13T07:35:54.133Z,995.08
2016-06-13T07:36:54.168Z,995.1
2016-06-13T07:37:54.202Z,995.09
2016-06-13T07:38:54.236Z,995.11
2016-06-13T07:39:54.270Z,995.13
2016-06-13T07:40:54.321Z,995.11
2016-06-13T07:41:54.354Z,995.14
2016-06-13T07:42:54.390Z,995.15
2016-06-13T07:43:54.424Z,995.15
2016-06-13T07:44:54.473Z,995.15
2016-06-13T07:45:54.507Z,995.15
2016-06-13T07:46:54.542Z,995.16
2016-06-13T07:47:54.577Z,995.15
2016-06-13T07:48:54.626Z,995.18
2016-06-13T07:49:54.661Z,995.12
2016-06-13T07:50:54.695Z,995.16
2016-06-13T07:51:54.729Z,995.12
2016-06-13T07:52:54.780Z,995.11
2016-06-13T07:53:54.813Z,995.1
2016-06-13T07:54:54.848Z,995.13
2016-06-13T07:55:54.883Z,995.11
2016-06-13T07:56:54.917Z,995.08
2016-06-13T07:57:55.466Z,995.08
2016-06-13T07:58:55.001Z,995.09
2016-06-13T07:59:55.035Z,995.06
2016-06-13T08:00:55.070Z,995.07
2016-06-13T08:01:55.120Z,995.08
2016-06-13T08:02:55.154Z,995.1
2016-06-13T08:03:55.188Z,995.1
2016-06-13T08:04:55.222Z,995.08
2016-06-13T08:05:55.272Z,995.08
2016-06-13T08:06:55.306Z,995.09
2016-06-13T08:07:55.341Z,995.11
2016-06-13T08:08:55.376Z,995.1
2016-06-13T08:09:55.409Z,995.07
2016-06-13T08:10:55.459Z,995.09
2016-06-13T08:11:55.494Z,995.12
2016-06-13T08:12:55.716Z,995.12
2016-06-13T08:13:55.562Z,995.07
2016-06-13T08:14:55.613Z,995.04
2016-06-13T08:15:55.646Z,995.06
2016-06-13T08:16:55.681Z,995.03
2016-06-13T08:17:55.715Z,995.04
2016-06-13T08:18:55.765Z,995.08
2016-06-13T08:19:55.800Z,995.04
2016-06-13T08:20:55.835Z,995.06
2016-06-13T08:21:55.868Z,995.06
2016-06-13T08:22:55.903Z,995.03
2016-06-13T08:23:55.937Z,995.02
2016-06-13T08:24:55.986Z,995.07
2016-06-13T08:25:56.022Z,995.02
2016-06-13T08:26:56.056Z,995.05
2016-06-13T08:27:56.089Z,994.98
2016-06-13T08:28:56.140Z,995.01
2016-06-13T08:29:56.174Z,994.99
2016-06-13T08:30:56.209Z,994.99
2016-06-13T08:31:56.243Z,995
2016-06-13T08:32:56.293Z,994.97
2016-06-13T08:33:56.327Z,995
2016-06-13T08:34:56.361Z,995.01
2016-06-13T08:35:56.396Z,995.01
2016-06-13T08:36:56.431Z,994.98
2016-06-13T08:37:56.496Z,994.98
2016-06-13T08:38:56.514Z,994.93
2016-06-13T08:39:56.549Z,994.92
2016-06-13T08:40:56.583Z,994.9
2016-06-13T08:41:56.632Z,994.93
2016-06-13T08:42:56.667Z,994.88
2016-06-13T08:43:56.702Z,994.92
2016-06-13T08:44:56.736Z,994.86
2016-06-13T08:45:56.786Z,994.88
2016-06-13T08:46:56.820Z,994.87
2016-06-13T08:47:56.854Z,994.85
2016-06-13T08:48:56.890Z,994.88
2016-06-13T08:49:56.938Z,994.86
2016-06-13T08:50:56.973Z,994.82
2016-06-13T08:51:57.008Z,994.81
2016-06-13T08:52:57.042Z,994.8
2016-06-13T08:53:57.091Z,994.8
2016-06-13T08:54:57.126Z,994.82
2016-06-13T08:55:57.176Z,994.81
2016-06-13T08:56:57.210Z,994.81
2016-06-13T08:57:57.245Z,994.87
2016-06-13T08:58:57.279Z,994.82
2016-06-13T08:59:57.329Z,994.82
2016-06-13T09:00:57.364Z,994.81
2016-06-13T09:01:57.397Z,994.81
2016-06-13T09:02:57.432Z,994.78
2016-06-13T09:03:57.481Z,994.75
2016-06-13T09:04:57.517Z,994.75
2016-06-13T09:05:57.550Z,994.75
2016-06-13T09:06:57.585Z,994.74
2016-06-13T09:07:57.635Z,994.7
2016-06-13T09:08:57.669Z,994.73
2016-06-13T09:09:57.704Z,994.72
2016-06-13T09:10:57.752Z,994.75
2016-06-13T09:11:57.788Z,994.73
2016-06-13T09:12:57.838Z,994.73
2016-06-13T09:13:57.872Z,994.74
2016-06-13T09:14:57.906Z,994.72
2016-06-13T09:15:57.941Z,994.69
2016-06-13T09:16:57.990Z,994.72
2016-06-13T09:17:58.024Z,994.68
2016-06-13T09:18:58.060Z,994.72
2016-06-13T09:19:58.110Z,994.7
2016-06-13T09:20:58.143Z,994.72
2016-06-13T09:21:58.194Z,994.72
2016-06-13T09:22:58.228Z,994.72
2016-06-13T09:23:58.261Z,994.73
2016-06-13T09:24:58.296Z,994.73
2016-06-13T09:25:58.346Z,994.7
2016-06-13T09:26:58.381Z,994.7
2016-06-13T09:27:58.430Z,994.69
2016-06-13T09:28:58.466Z,994.67
2016-06-13T09:29:58.499Z,994.71
2016-06-13T09:30:58.549Z,994.67
2016-06-13T09:31:58.584Z,994.68
2016-06-13T09:32:58.618Z,994.63
2016-06-13T09:33:58.653Z,994.69
2016-06-13T09:34:58.702Z,994.65
2016-06-13T09:35:58.736Z,994.7
2016-06-13T09:36:58.771Z,994.67
2016-06-13T09:37:58.821Z,994.68
2016-06-13T09:38:58.855Z,994.7
2016-06-13T09:39:58.905Z,994.7
2016-06-13T09:40:58.939Z,994.69
2016-06-13T09:41:58.989Z,994.69
2016-06-13T09:42:59.024Z,994.66
2016-06-13T09:43:59.059Z,994.65
2016-06-13T09:44:59.092Z,994.71
2016-06-13T09:45:59.142Z,994.63
2016-06-13T09:46:59.177Z,994.66
2016-06-13T09:47:59.227Z,994.6
2016-06-13T09:48:59.260Z,994.6
2016-06-13T09:49:59.295Z,994.57
2016-06-13T09:50:59.345Z,994.57
2016-06-13T09:51:59.379Z,994.57
2016-06-13T09:52:59.414Z,994.54
2016-06-13T09:53:59.464Z,994.5
2016-06-13T09:54:59.499Z,994.48
2016-06-13T09:55:59.532Z,994.45
2016-06-13T09:56:59.598Z,994.43
2016-06-13T09:57:59.617Z,994.37
2016-06-13T09:58:59.666Z,994.38
2016-06-13T09:59:59.700Z,994.33
2016-06-13T10:00:59.735Z,994.37
2016-06-13T10:01:59.785Z,994.33
2016-06-13T10:02:59.820Z,994.3
2016-06-13T10:03:59.853Z,994.29
2016-06-13T10:04:59.904Z,994.3
2016-06-13T10:05:59.938Z,994.27
2016-06-13T10:06:59.988Z,994.29
2016-06-13T10:08:00.022Z,994.27
2016-06-13T10:09:00.057Z,994.29
2016-06-13T10:10:00.106Z,994.3
2016-06-13T10:11:00.141Z,994.32
2016-06-13T10:12:00.176Z,994.35
2016-06-13T10:13:00.226Z,994.33
2016-06-13T10:14:00.259Z,994.34
2016-06-13T10:15:00.309Z,994.35
2016-06-13T10:16:00.344Z,994.36
2016-06-13T10:17:00.378Z,994.37
2016-06-13T10:18:00.428Z,994.35
2016-06-13T10:19:00.461Z,994.39
2016-06-13T10:20:00.497Z,994.37
2016-06-13T10:21:00.547Z,994.35
2016-06-13T10:22:00.581Z,994.34
2016-06-13T10:23:00.615Z,994.37
2016-06-13T10:24:00.666Z,994.35
2016-06-13T10:25:00.699Z,994.34
2016-06-13T10:26:00.749Z,994.37
2016-06-13T10:27:00.783Z,994.36
2016-06-13T10:28:00.912Z,994.38
2016-06-13T10:29:00.868Z,994.37
2016-06-13T10:30:00.902Z,994.35
2016-06-13T10:31:00.953Z,994.3
2016-06-13T10:32:00.987Z,994.28
2016-06-13T10:33:01.037Z,994.31
2016-06-13T10:34:01.071Z,994.28
2016-06-13T10:35:01.106Z,994.25
2016-06-13T10:36:01.155Z,994.26
2016-06-13T10:37:01.189Z,994.26
2016-06-13T10:38:01.224Z,994.24
2016-06-13T10:39:01.273Z,994.23
2016-06-13T10:40:01.308Z,994.26
2016-06-13T10:41:01.359Z,994.26
2016-06-13T10:42:01.393Z,994.22
2016-06-13T10:43:02.005Z,994.23
2016-06-13T10:44:01.492Z,994.23
2016-06-13T10:45:01.527Z,994.22
2016-06-13T10:46:01.561Z,994.18
2016-06-13T10:47:01.595Z,994.23
2016-06-13T10:48:01.645Z,994.24
2016-06-13T10:49:01.695Z,994.18
2016-06-13T10:50:01.729Z,994.16
2016-06-13T10:51:01.764Z,994.18
2016-06-13T10:52:01.813Z,994.14
2016-06-13T10:53:01.863Z,994.13
2016-06-13T10:54:01.898Z,994.08
2016-06-13T10:55:01.948Z,994.11
2016-06-13T10:56:01.998Z,994.12
2016-06-13T10:57:02.033Z,994.11
2016-06-13T10:58:02.082Z,994.11
2016-06-13T10:59:02.117Z,994
2016-06-13T11:00:02.167Z,993.99
2016-06-13T11:01:02.216Z,994.02
2016-06-13T11:02:02.266Z,994.06
2016-06-13T11:03:02.301Z,994.02
2016-06-13T11:04:02.350Z,994.01
2016-06-13T11:05:02.400Z,994.01
2016-06-13T11:06:02.451Z,994.02
2016-06-13T11:07:02.501Z,993.99
2016-06-13T11:08:02.535Z,994
2016-06-13T11:09:02.585Z,993.99
2016-06-13T11:10:02.635Z,993.99
2016-06-13T11:11:02.685Z,994
2016-06-13T11:12:02.735Z,994
2016-06-13T11:13:02.769Z,993.99
2016-06-13T11:14:03.069Z,994
2016-06-13T11:15:02.869Z,993.92
2016-06-13T11:16:02.919Z,993.99
2016-06-13T11:17:02.969Z,993.97
2016-06-13T11:18:03.003Z,993.96
2016-06-13T11:19:03.053Z,993.96
2016-06-13T11:20:03.104Z,993.92
2016-06-13T11:21:03.153Z,993.92
2016-06-13T11:22:03.203Z,993.9
2016-06-13T11:23:03.237Z,993.92
2016-06-13T11:24:03.287Z,993.87
2016-06-13T11:25:03.337Z,993.87
2016-06-13T11:26:03.372Z,993.92
2016-06-13T11:27:03.421Z,993.89
2016-06-13T11:28:03.503Z,993.84
2016-06-13T11:29:03.521Z,993.83
2016-06-13T11:30:04.055Z,993.82
2016-06-13T11:31:03.605Z,993.88
2016-06-13T11:32:03.655Z,993.84
2016-06-13T11:33:03.689Z,993.87
2016-06-13T11:34:03.740Z,993.8
2016-06-13T11:35:03.790Z,993.76
2016-06-13T11:36:03.840Z,993.76
2016-06-13T11:37:03.890Z,993.77
2016-06-13T11:38:03.924Z,993.71
2016-06-13T11:39:03.974Z,993.72
2016-06-13T11:40:04.024Z,993.71
2016-06-13T11:41:04.058Z,993.64
2016-06-13T11:42:04.108Z,993.62
2016-06-13T11:43:04.158Z,993.57
2016-06-13T11:44:04.396Z,993.56
2016-06-13T11:45:04.243Z,993.58
2016-06-13T11:46:04.292Z,993.61
2016-06-13T11:47:04.342Z,993.59
2016-06-13T11:48:04.376Z,993.56
2016-06-13T11:49:04.426Z,993.57
2016-06-13T11:50:04.460Z,993.57
2016-06-13T11:51:04.511Z,993.58
2016-06-13T11:52:04.561Z,993.53
2016-06-13T11:53:04.595Z,993.54
2016-06-13T11:54:04.645Z,993.56
2016-06-13T11:55:04.679Z,993.59
2016-06-13T11:56:04.729Z,993.59
2016-06-13T11:57:04.764Z,993.65
2016-06-13T11:58:04.813Z,993.66
2016-06-13T11:59:04.848Z,993.71
2016-06-13T12:00:04.897Z,993.7
2016-06-13T12:01:04.948Z,993.68
2016-06-13T12:02:04.983Z,993.62
2016-06-13T12:03:05.016Z,993.68
2016-06-13T12:04:05.067Z,993.68
2016-06-13T12:05:05.100Z,993.63
2016-06-13T12:06:05.150Z,993.62
2016-06-13T12:07:05.185Z,993.54
2016-06-13T12:08:05.235Z,993.53
2016-06-13T12:09:05.269Z,993.55
2016-06-13T12:10:05.303Z,993.53
2016-06-13T12:11:05.353Z,993.54
2016-06-13T12:12:05.388Z,993.51
2016-06-13T12:13:05.437Z,993.48
2016-06-13T12:14:05.628Z,993.45
2016-06-13T12:15:05.507Z,993.45
2016-06-13T12:16:05.540Z,993.41
2016-06-13T12:17:05.590Z,993.41
2016-06-13T12:18:05.625Z,993.41
2016-06-13T12:19:05.675Z,993.44
2016-06-13T12:20:05.709Z,993.44
2016-06-13T12:21:05.744Z,993.44
2016-06-13T12:22:05.778Z,993.42
2016-06-13T12:23:05.828Z,993.44
2016-06-13T12:24:05.862Z,993.4
2016-06-13T12:25:05.897Z,993.36
2016-06-13T12:26:05.931Z,993.43
2016-06-13T12:27:05.980Z,993.39
2016-06-13T12:28:06.016Z,993.4
2016-06-13T12:29:06.081Z,993.39
2016-06-13T12:30:06.100Z,993.39
2016-06-13T12:31:06.149Z,993.37
2016-06-13T12:32:06.184Z,993.37